Time;durP1;ratioP1;P1;durP2;ratioP2;P2;SDS_P1;SDS_P2;PMS_P1;PMS_P2;Temp;Humidity;BMP_temperature;BMP_pressure;BME280_temperature;BME280_humidity;BME280_pressure;Samples;Min_cycle;Max_cycle;Signal;HPM_P1;HPM_P2
2023/08/30 00:00:42;;;;;;;10.18;5.15;;;;;;;;;;5024125;28;20069;-66
2023/08/30 00:03:11;;;;;;;9.43;5.50;;;;;;;;;;5025191;28;20085;-66
2023/08/30 00:05:41;;;;;;;10.18;6.00;;;;;;;;;;5025253;28;20088;-65
2023/08/30 00:08:10;;;;;;;8.13;5.22;;;;;;;;;;5025646;28;20061;-65
2023/08/30 00:10:39;;;;;;;8.35;5.07;;;;;;;;;;5021159;28;20053;-66
2023/08/30 00:13:08;;;;;;;8.43;5.22;;;;;;;;;;5025154;28;20486;-64
2023/08/30 00:15:36;;;;;;;7.95;5.13;;;;;;;;;;5024728;28;20049;-65
2023/08/30 00:18:05;;;;;;;10.13;5.78;;;;;;;;;;5021807;28;20041;-66
2023/08/30 00:20:34;;;;;;;11.27;5.32;;;;;;;;;;5019430;28;20474;-65
2023/08/30 00:23:05;;;;;;;8.68;4.45;;;;;;;;;;5025014;28;20449;-65
2023/08/30 00:25:33;;;;;;;9.23;5.53;;;;;;;;;;5024752;28;20127;-65
2023/08/30 00:28:02;;;;;;;9.57;5.05;;;;;;;;;;5025050;28;20091;-63
2023/08/30 00:30:30;;;;;;;10.20;5.55;;;;;;;;;;5026287;28;20513;-65
2023/08/30 00:32:58;;;;;;;8.77;5.38;;;;;;;;;;5022805;28;20132;-64
2023/08/30 00:35:27;;;;;;;8.73;5.47;;;;;;;;;;5025221;28;20060;-66
2023/08/30 00:37:55;;;;;;;8.52;5.00;;;;;;;;;;5024888;28;20549;-65
2023/08/30 00:40:26;;;;;;;9.90;5.13;;;;;;;;;;5023503;28;20486;-66
2023/08/30 00:42:54;;;;;;;11.05;5.82;;;;;;;;;;5022610;28;20754;-65
2023/08/30 00:45:23;;;;;;;7.97;4.72;;;;;;;;;;5026329;28;20697;-66
2023/08/30 00:47:51;;;;;;;9.70;5.05;;;;;;;;;;5026625;28;20100;-68
2023/08/30 00:50:20;;;;;;;11.15;5.72;;;;;;;;;;5025655;28;20059;-65
2023/08/30 00:52:48;;;;;;;7.50;4.63;;;;;;;;;;5023705;28;20053;-65
2023/08/30 00:55:17;;;;;;;11.25;5.88;;;;;;;;;;5024633;28;20041;-66
2023/08/30 00:57:46;;;;;;;8.25;4.93;;;;;;;;;;5022575;28;20077;-66
2023/08/30 01:00:16;;;;;;;8.98;5.00;;;;;;;;;;5021055;28;20041;-69
2023/08/30 01:02:46;;;;;;;9.10;5.03;;;;;;;;;;5025264;28;20476;-66
2023/08/30 01:05:15;;;;;;;8.68;4.90;;;;;;;;;;5033921;22;20299;-57
2023/08/30 01:07:43;;;;;;;8.48;4.78;;;;;;;;;;5019684;28;20119;-59
2023/08/30 01:10:12;;;;;;;9.55;5.13;;;;;;;;;;5016263;28;20045;-59
2023/08/30 01:12:42;;;;;;;10.90;5.25;;;;;;;;;;5023981;28;20045;-60
2023/08/30 01:15:13;;;;;;;9.02;4.70;;;;;;;;;;5022079;28;20049;-59
2023/08/30 01:17:43;;;;;;;10.73;5.22;;;;;;;;;;5024881;28;20045;-61
2023/08/30 01:20:15;;;;;;;7.32;4.28;;;;;;;;;;5021981;28;20112;-60
2023/08/30 01:22:47;;;;;;;9.77;5.13;;;;;;;;;;5023282;28;20065;-60
2023/08/30 01:25:21;;;;;;;7.07;4.22;;;;;;;;;;5020855;28;21552;-59
2023/08/30 01:27:52;;;;;;;8.27;4.63;;;;;;;;;;5024014;28;20361;-58
2023/08/30 01:30:21;;;;;;;8.60;4.82;;;;;;;;;;5021328;28;20122;-59
2023/08/30 01:32:50;;;;;;;7.63;4.38;;;;;;;;;;5022021;28;20072;-58
2023/08/30 01:35:19;;;;;;;7.40;4.70;;;;;;;;;;5021922;28;20319;-59
2023/08/30 01:37:48;;;;;;;10.73;5.03;;;;;;;;;;5023914;28;20053;-58
2023/08/30 01:40:17;;;;;;;7.65;4.60;;;;;;;;;;5022793;28;20151;-58
2023/08/30 01:42:46;;;;;;;7.10;4.35;;;;;;;;;;5023004;28;20045;-58
2023/08/30 01:45:16;;;;;;;7.20;4.30;;;;;;;;;;5018917;28;20095;-59
2023/08/30 01:47:45;;;;;;;9.45;5.18;;;;;;;;;;5022039;28;20099;-59
2023/08/30 01:50:13;;;;;;;7.65;4.45;;;;;;;;;;5023054;28;20067;-59
2023/08/30 01:52:42;;;;;;;7.28;4.30;;;;;;;;;;5022747;28;20074;-58
2023/08/30 01:55:11;;;;;;;8.82;5.28;;;;;;;;;;5021922;28;20052;-59
2023/08/30 01:57:40;;;;;;;8.73;4.45;;;;;;;;;;5023803;28;20462;-59
2023/08/30 02:00:08;;;;;;;7.55;4.55;;;;;;;;;;5019675;28;20099;-59
2023/08/30 02:02:38;;;;;;;8.60;4.35;;;;;;;;;;5023460;28;20083;-59
2023/08/30 02:05:07;;;;;;;7.97;3.85;;;;;;;;;;5021151;28;20833;-59
2023/08/30 02:07:37;;;;;;;7.28;4.25;;;;;;;;;;5022359;28;20045;-58
2023/08/30 02:10:08;;;;;;;7.50;4.30;;;;;;;;;;5021444;28;20461;-58
2023/08/30 02:12:38;;;;;;;7.88;4.63;;;;;;;;;;5021012;28;20069;-60
2023/08/30 02:15:08;;;;;;;7.80;4.75;;;;;;;;;;5017185;28;20169;-58
2023/08/30 02:17:39;;;;;;;9.80;4.47;;;;;;;;;;5023108;28;20061;-59
2023/08/30 02:20:08;;;;;;;6.15;3.90;;;;;;;;;;5021756;28;20386;-58
2023/08/30 02:22:36;;;;;;;6.57;4.15;;;;;;;;;;5023361;28;20045;-59
2023/08/30 02:25:06;;;;;;;8.55;4.03;;;;;;;;;;5021647;28;20123;-59
2023/08/30 02:27:35;;;;;;;6.55;4.18;;;;;;;;;;5023422;28;20056;-59
2023/08/30 02:30:03;;;;;;;7.30;3.95;;;;;;;;;;5023268;28;20129;-58
2023/08/30 02:32:32;;;;;;;6.50;4.28;;;;;;;;;;5022545;28;20045;-59
2023/08/30 02:35:02;;;;;;;7.93;4.20;;;;;;;;;;5020922;28;20042;-60
2023/08/30 02:37:30;;;;;;;6.53;4.10;;;;;;;;;;5023116;28;20131;-58
2023/08/30 02:39:58;;;;;;;10.63;3.85;;;;;;;;;;5018389;28;20098;-59
2023/08/30 02:42:27;;;;;;;5.93;3.80;;;;;;;;;;5023622;28;20054;-59
2023/08/30 02:44:55;;;;;;;6.93;3.65;;;;;;;;;;5023201;28;20127;-58
2023/08/30 02:47:23;;;;;;;6.45;3.95;;;;;;;;;;5022835;28;20099;-58
2023/08/30 02:49:52;;;;;;;6.57;3.67;;;;;;;;;;5019177;28;20055;-62
2023/08/30 02:52:21;;;;;;;7.80;4.75;;;;;;;;;;5022688;28;20469;-58
2023/08/30 02:54:50;;;;;;;6.28;3.97;;;;;;;;;;5024819;28;20048;-58
2023/08/30 02:57:18;;;;;;;8.25;4.38;;;;;;;;;;5024493;28;20045;-60
2023/08/30 02:59:47;;;;;;;6.82;3.67;;;;;;;;;;5023860;28;20061;-58
2023/08/30 03:02:15;;;;;;;6.47;4.07;;;;;;;;;;5025283;28;20332;-62
2023/08/30 03:04:44;;;;;;;6.03;3.25;;;;;;;;;;5027214;28;20060;-58
2023/08/30 03:07:12;;;;;;;9.18;3.97;;;;;;;;;;5027178;28;20118;-60
2023/08/30 03:09:42;;;;;;;6.75;3.97;;;;;;;;;;5026032;28;20045;-58
2023/08/30 03:12:10;;;;;;;6.43;3.88;;;;;;;;;;5023263;28;20491;-59
2023/08/30 03:14:38;;;;;;;6.40;3.95;;;;;;;;;;5023649;28;20500;-59
2023/08/30 03:17:07;;;;;;;7.47;3.92;;;;;;;;;;5026369;28;20053;-58
2023/08/30 03:19:35;;;;;;;5.88;3.70;;;;;;;;;;5025565;28;20083;-59
2023/08/30 03:22:03;;;;;;;6.35;4.13;;;;;;;;;;5026569;28;20130;-58
2023/08/30 03:24:32;;;;;;;6.03;3.63;;;;;;;;;;5025123;28;20740;-58
2023/08/30 03:27:02;;;;;;;7.70;3.92;;;;;;;;;;5024503;28;20108;-58
2023/08/30 03:29:30;;;;;;;7.35;3.67;;;;;;;;;;5020483;28;20533;-58
2023/08/30 03:31:59;;;;;;;6.70;4.05;;;;;;;;;;5022624;28;20489;-58
2023/08/30 03:34:27;;;;;;;5.60;3.72;;;;;;;;;;5022394;28;20049;-60
2023/08/30 03:36:55;;;;;;;5.47;4.00;;;;;;;;;;5026014;28;20045;-61
2023/08/30 03:39:24;;;;;;;5.75;3.63;;;;;;;;;;5024530;28;20041;-59
2023/08/30 03:41:52;;;;;;;5.75;3.63;;;;;;;;;;5024993;28;20053;-58
2023/08/30 03:44:22;;;;;;;7.97;4.13;;;;;;;;;;5025692;28;20514;-58
2023/08/30 03:46:50;;;;;;;10.75;4.03;;;;;;;;;;5023902;28;20131;-58
2023/08/30 03:49:19;;;;;;;7.50;4.40;;;;;;;;;;5022957;28;20125;-59
2023/08/30 03:51:47;;;;;;;6.50;3.72;;;;;;;;;;5025188;28;20045;-59
2023/08/30 03:54:16;;;;;;;6.50;3.45;;;;;;;;;;5025320;28;20042;-59
2023/08/30 03:56:44;;;;;;;7.20;4.07;;;;;;;;;;5024397;28;20577;-58
2023/08/30 03:59:13;;;;;;;6.38;3.35;;;;;;;;;;5021779;28;20141;-59
2023/08/30 04:01:42;;;;;;;6.00;3.35;;;;;;;;;;5024003;28;20064;-57
2023/08/30 04:04:11;;;;;;;7.25;3.95;;;;;;;;;;5026774;28;20150;-58
2023/08/30 04:06:39;;;;;;;6.85;4.00;;;;;;;;;;5020352;28;20049;-58
2023/08/30 04:09:10;;;;;;;8.32;3.92;;;;;;;;;;5023145;28;20453;-58
2023/08/30 04:11:38;;;;;;;5.78;3.80;;;;;;;;;;5024444;28;20528;-59
2023/08/30 04:14:07;;;;;;;7.22;4.97;;;;;;;;;;5025225;28;20049;-58
2023/08/30 04:16:35;;;;;;;6.20;3.70;;;;;;;;;;5024706;28;20095;-59
2023/08/30 04:19:05;;;;;;;6.20;4.07;;;;;;;;;;5022852;28;20128;-59
2023/08/30 04:21:33;;;;;;;6.80;4.10;;;;;;;;;;5023617;28;20441;-59
2023/08/30 04:24:02;;;;;;;8.27;3.97;;;;;;;;;;5023439;28;20137;-61
2023/08/30 04:26:30;;;;;;;8.93;4.90;;;;;;;;;;5021744;28;20119;-59
2023/08/30 04:28:59;;;;;;;8.07;4.43;;;;;;;;;;5022498;28;20527;-58
2023/08/30 04:31:27;;;;;;;7.32;4.40;;;;;;;;;;5024416;28;20093;-61
2023/08/30 04:33:56;;;;;;;10.02;3.63;;;;;;;;;;5025239;28;20046;-61
2023/08/30 04:36:25;;;;;;;6.22;3.88;;;;;;;;;;5023766;28;20123;-58
2023/08/30 04:38:54;;;;;;;7.43;4.15;;;;;;;;;;5024177;28;21193;-58
2023/08/30 04:41:30;;;;;;;7.93;3.75;;;;;;;;;;5022491;28;20048;-59
2023/08/30 04:43:58;;;;;;;7.88;3.83;;;;;;;;;;5022927;28;20054;-60
2023/08/30 04:46:27;;;;;;;8.38;3.85;;;;;;;;;;5024307;28;20451;-59
2023/08/30 04:48:55;;;;;;;7.60;4.03;;;;;;;;;;5020657;28;20091;-60
2023/08/30 04:51:25;;;;;;;6.18;3.88;;;;;;;;;;5021498;28;20049;-58
2023/08/30 04:53:53;;;;;;;7.25;3.97;;;;;;;;;;5022601;28;20080;-59
2023/08/30 04:56:22;;;;;;;7.40;4.18;;;;;;;;;;5022952;28;20513;-59
2023/08/30 04:58:51;;;;;;;6.20;3.47;;;;;;;;;;5024700;28;20049;-58
2023/08/30 05:01:19;;;;;;;6.85;4.18;;;;;;;;;;5018628;28;20049;-59
2023/08/30 05:03:48;;;;;;;6.32;4.07;;;;;;;;;;5022180;28;20429;-59
2023/08/30 05:06:16;;;;;;;6.70;3.60;;;;;;;;;;5022079;28;20389;-59
2023/08/30 05:08:46;;;;;;;6.90;3.92;;;;;;;;;;5021304;28;20053;-58
2023/08/30 05:11:15;;;;;;;5.75;3.97;;;;;;;;;;5018443;28;20552;-58
2023/08/30 05:13:44;;;;;;;5.95;3.60;;;;;;;;;;5024890;28;20088;-60
2023/08/30 05:16:12;;;;;;;6.80;3.92;;;;;;;;;;5021093;28;20038;-59
2023/08/30 05:18:40;;;;;;;8.05;4.07;;;;;;;;;;5020997;28;20310;-60
2023/08/30 05:21:09;;;;;;;6.10;3.75;;;;;;;;;;5021345;28;20041;-58
2023/08/30 05:23:37;;;;;;;7.72;4.07;;;;;;;;;;5020949;28;20104;-60
2023/08/30 05:26:12;;;;;;;8.10;4.28;;;;;;;;;;5023599;28;20077;-61
2023/08/30 05:28:40;;;;;;;6.72;3.45;;;;;;;;;;5015400;28;20101;-59
2023/08/30 05:31:09;;;;;;;6.72;3.85;;;;;;;;;;5020866;28;20068;-60
2023/08/30 05:33:37;;;;;;;7.00;3.70;;;;;;;;;;5021608;28;20042;-59
2023/08/30 05:36:05;;;;;;;6.47;3.78;;;;;;;;;;5024573;28;20069;-59
2023/08/30 05:38:34;;;;;;;6.05;3.75;;;;;;;;;;5023448;28;20076;-58
2023/08/30 05:41:02;;;;;;;6.70;3.80;;;;;;;;;;5023510;28;20050;-59
2023/08/30 05:43:32;;;;;;;5.43;3.58;;;;;;;;;;5021094;28;20094;-60
2023/08/30 05:46:02;;;;;;;11.48;4.22;;;;;;;;;;5023297;28;20045;-59
2023/08/30 05:48:30;;;;;;;6.63;3.60;;;;;;;;;;5021715;28;20048;-59
2023/08/30 05:50:59;;;;;;;11.32;4.50;;;;;;;;;;5023295;28;20084;-60
2023/08/30 05:53:27;;;;;;;7.18;4.13;;;;;;;;;;5021600;28;20469;-60
2023/08/30 05:55:56;;;;;;;9.93;4.28;;;;;;;;;;5022661;28;20127;-60
2023/08/30 05:58:24;;;;;;;8.70;4.90;;;;;;;;;;5023725;28;20068;-59
2023/08/30 06:00:54;;;;;;;7.57;4.40;;;;;;;;;;5018319;28;20568;-59
2023/08/30 06:03:22;;;;;;;8.00;4.43;;;;;;;;;;5023859;28;20049;-59
2023/08/30 06:05:51;;;;;;;7.32;4.20;;;;;;;;;;5026556;28;20045;-59
2023/08/30 06:08:19;;;;;;;6.40;3.80;;;;;;;;;;5024174;28;20037;-62
2023/08/30 06:10:48;;;;;;;6.93;3.90;;;;;;;;;;5014493;28;20049;-58
2023/08/30 06:13:16;;;;;;;7.00;3.95;;;;;;;;;;5004316;28;20299;-60
2023/08/30 06:15:45;;;;;;;7.68;4.20;;;;;;;;;;5002920;28;20126;-59
2023/08/30 06:18:15;;;;;;;6.88;4.38;;;;;;;;;;5004107;28;20042;-59
2023/08/30 06:20:43;;;;;;;10.85;4.40;;;;;;;;;;5013904;28;20527;-60
2023/08/30 06:23:11;;;;;;;7.53;4.38;;;;;;;;;;5022365;28;20065;-60
2023/08/30 06:25:40;;;;;;;8.25;4.05;;;;;;;;;;5024460;28;20045;-58
2023/08/30 06:28:08;;;;;;;9.48;4.38;;;;;;;;;;5020777;28;20453;-59
2023/08/30 06:30:37;;;;;;;6.53;3.83;;;;;;;;;;5025073;28;20053;-59
2023/08/30 06:33:06;;;;;;;7.15;3.63;;;;;;;;;;5026900;28;20124;-60
2023/08/30 06:35:39;;;;;;;6.75;3.88;;;;;;;;;;5028007;28;20053;-59
2023/08/30 06:38:07;;;;;;;6.93;3.78;;;;;;;;;;5025708;28;20077;-60
2023/08/30 06:40:36;;;;;;;6.40;3.85;;;;;;;;;;5028720;28;20566;-59
2023/08/30 06:43:05;;;;;;;7.68;4.35;;;;;;;;;;5023497;28;20435;-58
2023/08/30 06:45:33;;;;;;;7.10;4.43;;;;;;;;;;5026999;28;20100;-60
2023/08/30 06:48:01;;;;;;;8.38;4.45;;;;;;;;;;5025148;28;20533;-60
2023/08/30 06:50:30;;;;;;;7.43;4.15;;;;;;;;;;5024597;28;20045;-59
2023/08/30 06:53:00;;;;;;;6.95;4.32;;;;;;;;;;5023303;28;20053;-60
2023/08/30 06:55:28;;;;;;;6.57;3.80;;;;;;;;;;5024740;28;20076;-60
2023/08/30 06:57:57;;;;;;;7.35;3.85;;;;;;;;;;5024448;28;20048;-60
2023/08/30 07:00:25;;;;;;;8.73;4.38;;;;;;;;;;5025819;28;20651;-59
2023/08/30 07:02:53;;;;;;;5.70;3.67;;;;;;;;;;5024771;28;20041;-59
2023/08/30 07:05:23;;;;;;;6.40;3.38;;;;;;;;;;5027305;28;20148;-59
2023/08/30 07:07:52;;;;;;;6.75;4.03;;;;;;;;;;5025798;28;20069;-59
2023/08/30 07:10:21;;;;;;;6.43;3.75;;;;;;;;;;5026789;28;20054;-61
2023/08/30 07:12:50;;;;;;;6.25;3.60;;;;;;;;;;5026514;28;20041;-60
2023/08/30 07:15:18;;;;;;;7.65;4.10;;;;;;;;;;5024019;28;20049;-60
2023/08/30 07:17:46;;;;;;;7.63;4.47;;;;;;;;;;5025714;28;20486;-61
2023/08/30 07:20:21;;;;;;;8.82;4.57;;;;;;;;;;5025685;28;20045;-58
2023/08/30 07:22:49;;;;;;;6.95;4.60;;;;;;;;;;5023035;28;20049;-59
2023/08/30 07:25:17;;;;;;;7.32;4.25;;;;;;;;;;5026522;28;20065;-60
2023/08/30 07:27:47;;;;;;;8.40;4.90;;;;;;;;;;5024178;28;20056;-60
2023/08/30 07:30:16;;;;;;;7.57;4.18;;;;;;;;;;5023193;28;20392;-59
2023/08/30 07:32:44;;;;;;;9.18;5.32;;;;;;;;;;5026165;28;20136;-58
2023/08/30 07:35:12;;;;;;;9.38;4.82;;;;;;;;;;5023826;28;20119;-59
2023/08/30 07:37:42;;;;;;;8.32;4.60;;;;;;;;;;5024265;28;20053;-61
2023/08/30 07:40:12;;;;;;;8.25;4.68;;;;;;;;;;5024583;28;20053;-63
2023/08/30 07:42:40;;;;;;;10.88;5.45;;;;;;;;;;5022418;28;20180;-60
2023/08/30 07:45:11;;;;;;;9.65;5.03;;;;;;;;;;5028493;28;20045;-61
2023/08/30 07:47:39;;;;;;;12.48;5.47;;;;;;;;;;5022235;28;20523;-60
2023/08/30 07:50:08;;;;;;;10.10;5.28;;;;;;;;;;5023186;28;20045;-62
2023/08/30 07:52:36;;;;;;;10.27;5.80;;;;;;;;;;5024849;28;20049;-64
2023/08/30 07:55:13;;;;;;;9.73;5.40;;;;;;;;;;5024101;28;20038;-59
2023/08/30 07:57:42;;;;;;;9.38;4.97;;;;;;;;;;5025626;28;20521;-59
2023/08/30 08:00:12;;;;;;;10.77;5.18;;;;;;;;;;5013476;28;21054;-60
2023/08/30 08:02:41;;;;;;;8.60;5.25;;;;;;;;;;4999500;28;20041;-64
2023/08/30 08:05:10;;;;;;;11.48;5.60;;;;;;;;;;5002594;28;20116;-60
2023/08/30 08:07:40;;;;;;;7.75;4.75;;;;;;;;;;5006100;28;20565;-62
2023/08/30 08:10:09;;;;;;;8.65;4.93;;;;;;;;;;5010532;28;20104;-60
2023/08/30 08:12:38;;;;;;;11.55;5.07;;;;;;;;;;5023805;28;20048;-61
2023/08/30 08:15:07;;;;;;;10.50;5.25;;;;;;;;;;5019202;28;20053;-61
2023/08/30 08:17:37;;;;;;;8.07;4.90;;;;;;;;;;5021503;28;20037;-60
2023/08/30 08:20:06;;;;;;;8.38;5.00;;;;;;;;;;5022429;28;20056;-61
2023/08/30 08:22:35;;;;;;;10.52;5.53;;;;;;;;;;5024381;28;20053;-60
2023/08/30 08:25:03;;;;;;;11.52;5.93;;;;;;;;;;5024449;28;20066;-61
2023/08/30 08:27:32;;;;;;;11.77;6.38;;;;;;;;;;5018906;28;20049;-63
2023/08/30 08:30:00;;;;;;;8.75;5.00;;;;;;;;;;5022025;28;20046;-59
2023/08/30 08:32:29;;;;;;;9.07;5.32;;;;;;;;;;5023101;28;20502;-61
2023/08/30 08:34:58;;;;;;;9.68;5.97;;;;;;;;;;5022385;28;20651;-59
2023/08/30 08:37:27;;;;;;;9.27;5.88;;;;;;;;;;5023302;28;20518;-59
2023/08/30 08:39:55;;;;;;;9.95;5.68;;;;;;;;;;5020796;28;20046;-60
2023/08/30 08:42:24;;;;;;;11.00;6.07;;;;;;;;;;5020510;28;20044;-62
2023/08/30 08:44:53;;;;;;;9.27;5.85;;;;;;;;;;5022843;28;20111;-58
2023/08/30 08:47:22;;;;;;;8.43;5.63;;;;;;;;;;5020154;28;20050;-58
2023/08/30 08:49:51;;;;;;;11.23;6.07;;;;;;;;;;5017700;28;20080;-59
2023/08/30 08:52:20;;;;;;;9.23;6.35;;;;;;;;;;5018420;28;20041;-60
2023/08/30 08:54:59;;;;;;;9.90;5.68;;;;;;;;;;5020772;28;20641;-62
2023/08/30 08:57:28;;;;;;;16.17;6.45;;;;;;;;;;5021509;28;20045;-59
2023/08/30 08:59:57;;;;;;;11.27;5.97;;;;;;;;;;5019224;28;20450;-59
2023/08/30 09:02:25;;;;;;;11.50;6.82;;;;;;;;;;5021235;28;20050;-60
2023/08/30 09:04:54;;;;;;;10.25;5.97;;;;;;;;;;5021184;28;20061;-59
2023/08/30 09:07:26;;;;;;;12.68;6.43;;;;;;;;;;5021627;28;20061;-60
2023/08/30 09:09:55;;;;;;;9.60;5.47;;;;;;;;;;5020768;28;20045;-59
2023/08/30 09:12:23;;;;;;;10.60;6.35;;;;;;;;;;5021154;28;20081;-59
2023/08/30 09:14:56;;;;;;;10.30;6.35;;;;;;;;;;5018202;28;20132;-60
2023/08/30 09:17:24;;;;;;;9.13;5.50;;;;;;;;;;5021154;28;20502;-59
2023/08/30 09:19:53;;;;;;;10.68;5.22;;;;;;;;;;5023306;28;20049;-58
2023/08/30 09:22:21;;;;;;;8.95;5.20;;;;;;;;;;5021107;28;20426;-58
2023/08/30 09:24:51;;;;;;;9.45;5.32;;;;;;;;;;5022586;28;20042;-59
2023/08/30 09:27:19;;;;;;;7.57;4.72;;;;;;;;;;5019597;28;20663;-58
2023/08/30 09:29:48;;;;;;;8.73;4.82;;;;;;;;;;5020875;28;20495;-60
2023/08/30 09:32:22;;;;;;;7.63;4.50;;;;;;;;;;5022289;28;20109;-60
2023/08/30 09:34:51;;;;;;;8.48;4.38;;;;;;;;;;5025083;28;20045;-60
2023/08/30 09:37:23;;;;;;;7.32;4.38;;;;;;;;;;5021426;28;20050;-59
2023/08/30 09:39:53;;;;;;;5.65;3.92;;;;;;;;;;5020667;28;20474;-60
2023/08/30 09:42:21;;;;;;;7.85;4.90;;;;;;;;;;5021737;28;20169;-58
2023/08/30 09:44:50;;;;;;;6.38;4.15;;;;;;;;;;5020007;28;20088;-59
2023/08/30 09:47:18;;;;;;;7.20;3.78;;;;;;;;;;5018629;28;20055;-60
2023/08/30 09:49:47;;;;;;;6.07;3.58;;;;;;;;;;5018877;28;20494;-60
2023/08/30 09:52:16;;;;;;;5.03;3.40;;;;;;;;;;5020547;28;20045;-60
2023/08/30 09:54:45;;;;;;;4.38;2.97;;;;;;;;;;5017493;28;20063;-59
2023/08/30 09:57:16;;;;;;;5.78;3.05;;;;;;;;;;5020284;28;20053;-59
2023/08/30 09:59:46;;;;;;;4.43;2.88;;;;;;;;;;5017915;28;20045;-60
2023/08/30 10:02:15;;;;;;;3.00;2.20;;;;;;;;;;5019123;28;20041;-60
2023/08/30 10:04:45;;;;;;;4.15;2.88;;;;;;;;;;5020444;28;20302;-64
2023/08/30 10:07:13;;;;;;;4.43;2.80;;;;;;;;;;5023203;28;20304;-60
2023/08/30 10:09:43;;;;;;;5.82;3.60;;;;;;;;;;5023563;28;20049;-61
2023/08/30 10:12:33;;;;;;;4.57;2.78;;;;;;;;;;5024394;28;20625;-59
2023/08/30 10:15:02;;;;;;;3.42;2.45;;;;;;;;;;5020648;28;20112;-62
2023/08/30 10:17:33;;;;;;;8.88;2.50;;;;;;;;;;5020770;28;20388;-63
2023/08/30 10:20:05;;;;;;;2.90;1.98;;;;;;;;;;5022267;28;20084;-63
2023/08/30 10:22:34;;;;;;;2.47;2.08;;;;;;;;;;5020109;28;20057;-59
2023/08/30 10:25:04;;;;;;;2.45;1.70;;;;;;;;;;5021405;28;20588;-59
2023/08/30 10:27:42;;;;;;;5.45;2.25;;;;;;;;;;5022918;28;20080;-60
2023/08/30 10:30:11;;;;;;;2.95;2.08;;;;;;;;;;5023031;28;20494;-60
2023/08/30 10:32:40;;;;;;;2.28;1.58;;;;;;;;;;5017982;28;20053;-60
2023/08/30 10:35:12;;;;;;;3.08;2.30;;;;;;;;;;5019688;28;20052;-63
2023/08/30 10:37:40;;;;;;;5.45;2.58;;;;;;;;;;5024696;28;20088;-61
2023/08/30 10:40:09;;;;;;;4.20;2.50;;;;;;;;;;5023395;28;20057;-60
2023/08/30 10:42:38;;;;;;;4.28;2.20;;;;;;;;;;5016161;28;20569;-62
2023/08/30 10:45:08;;;;;;;4.85;2.47;;;;;;;;;;5021732;28;20050;-60
2023/08/30 10:47:41;;;;;;;4.68;2.80;;;;;;;;;;5024691;28;20483;-62
2023/08/30 10:50:11;;;;;;;3.25;2.25;;;;;;;;;;5025130;28;20043;-63
2023/08/30 10:52:39;;;;;;;8.98;2.40;;;;;;;;;;5024441;28;20046;-59
2023/08/30 10:55:08;;;;;;;2.15;1.80;;;;;;;;;;5025417;28;20038;-56
2023/08/30 10:57:37;;;;;;;2.95;1.98;;;;;;;;;;5021388;28;20095;-59
2023/08/30 11:00:09;;;;;;;2.33;1.85;;;;;;;;;;5020897;28;20132;-60
2023/08/30 11:02:38;;;;;;;2.13;1.70;;;;;;;;;;5027064;28;20402;-57
2023/08/30 11:05:08;;;;;;;2.42;1.45;;;;;;;;;;5026114;28;20057;-61
2023/08/30 11:07:36;;;;;;;3.88;1.90;;;;;;;;;;5019799;28;20449;-58
2023/08/30 11:10:06;;;;;;;2.80;1.70;;;;;;;;;;5024584;28;20117;-58
2023/08/30 11:12:35;;;;;;;2.50;1.70;;;;;;;;;;5025852;28;20048;-59
2023/08/30 11:15:04;;;;;;;6.13;2.10;;;;;;;;;;5023431;28;20041;-61
2023/08/30 11:17:34;;;;;;;2.67;2.03;;;;;;;;;;5023794;28;20559;-58
2023/08/30 11:20:10;;;;;;;3.97;1.85;;;;;;;;;;5026486;28;20048;-57
2023/08/30 11:22:39;;;;;;;2.88;1.75;;;;;;;;;;5026474;28;20064;-58
2023/08/30 11:25:09;;;;;;;3.08;1.50;;;;;;;;;;5020636;28;20046;-59
2023/08/30 11:27:38;;;;;;;2.33;1.50;;;;;;;;;;5026941;28;20053;-58
2023/08/30 11:30:08;;;;;;;3.67;1.80;;;;;;;;;;5024289;28;20324;-59
2023/08/30 11:32:38;;;;;;;2.47;1.42;;;;;;;;;;5026696;28;20565;-58
2023/08/30 11:35:07;;;;;;;1.90;1.23;;;;;;;;;;5020448;28;20126;-59
2023/08/30 11:37:36;;;;;;;2.00;1.38;;;;;;;;;;5025616;28;20045;-57
2023/08/30 11:40:06;;;;;;;3.05;1.52;;;;;;;;;;5019393;28;20127;-59
2023/08/30 11:42:35;;;;;;;1.60;1.10;;;;;;;;;;5025425;28;20099;-58
2023/08/30 11:45:04;;;;;;;1.42;1.15;;;;;;;;;;5021429;28;20400;-59
2023/08/30 11:47:32;;;;;;;1.95;1.23;;;;;;;;;;5021524;28;20054;-57
2023/08/30 11:50:03;;;;;;;2.08;1.05;;;;;;;;;;5022326;28;20518;-61
2023/08/30 11:52:32;;;;;;;2.03;1.30;;;;;;;;;;5020382;28;20042;-58
2023/08/30 11:55:02;;;;;;;3.80;1.45;;;;;;;;;;5023235;28;20313;-59
2023/08/30 11:57:35;;;;;;;2.58;1.13;;;;;;;;;;5024424;28;20048;-59
2023/08/30 12:00:13;;;;;;;3.45;1.30;;;;;;;;;;5020684;28;20049;-63
2023/08/30 12:02:41;;;;;;;1.23;1.08;;;;;;;;;;5019480;28;20057;-59
2023/08/30 12:05:13;;;;;;;2.42;1.20;;;;;;;;;;5024294;28;20053;-59
2023/08/30 12:07:42;;;;;;;1.30;1.10;;;;;;;;;;5023678;28;20588;-59
2023/08/30 12:10:11;;;;;;;1.65;1.38;;;;;;;;;;5021344;28;20513;-60
2023/08/30 12:12:41;;;;;;;1.80;1.30;;;;;;;;;;5019994;28;20464;-59
2023/08/30 12:15:09;;;;;;;2.65;1.55;;;;;;;;;;5017385;28;20049;-60
2023/08/30 12:17:38;;;;;;;5.30;1.38;;;;;;;;;;5020564;28;20041;-60
2023/08/30 12:20:07;;;;;;;2.53;1.40;;;;;;;;;;5023060;28;20041;-59
2023/08/30 12:22:40;;;;;;;3.17;1.77;;;;;;;;;;5019817;28;20120;-58
2023/08/30 12:25:17;;;;;;;3.28;1.55;;;;;;;;;;5017822;28;20056;-58
2023/08/30 12:27:46;;;;;;;2.65;1.35;;;;;;;;;;5015500;28;20049;-58
2023/08/30 12:30:16;;;;;;;3.50;1.52;;;;;;;;;;5018608;28;20056;-59
2023/08/30 12:32:45;;;;;;;3.25;1.50;;;;;;;;;;5020954;28;20116;-58
2023/08/30 12:35:13;;;;;;;1.73;1.35;;;;;;;;;;5023314;28;20491;-58
2023/08/30 12:37:43;;;;;;;2.35;1.20;;;;;;;;;;5016347;28;20071;-58
2023/08/30 12:40:13;;;;;;;2.08;1.50;;;;;;;;;;5018816;28;20060;-60
2023/08/30 12:42:42;;;;;;;2.95;1.20;;;;;;;;;;5020875;28;20445;-60
2023/08/30 12:45:10;;;;;;;1.90;1.20;;;;;;;;;;5018545;28;20058;-60
2023/08/30 12:47:39;;;;;;;1.88;1.23;;;;;;;;;;5020891;28;20530;-57
2023/08/30 12:50:09;;;;;;;3.20;1.15;;;;;;;;;;5018636;28;20180;-58
2023/08/30 12:52:38;;;;;;;1.83;1.35;;;;;;;;;;5020607;28;20077;-58
2023/08/30 12:55:08;;;;;;;1.60;1.33;;;;;;;;;;5018938;28;20057;-58
2023/08/30 12:57:38;;;;;;;2.95;1.50;;;;;;;;;;5014341;28;20049;-60
2023/08/30 13:00:07;;;;;;;1.38;1.27;;;;;;;;;;5019581;28;20293;-63
2023/08/30 13:02:36;;;;;;;1.73;1.20;;;;;;;;;;5019370;28;20544;-59
2023/08/30 13:05:04;;;;;;;1.50;1.40;;;;;;;;;;5015535;28;20054;-59
2023/08/30 13:07:33;;;;;;;1.27;1.17;;;;;;;;;;5019803;28;20089;-58
2023/08/30 13:10:03;;;;;;;3.38;1.52;;;;;;;;;;5020081;28;20085;-58
2023/08/30 13:12:33;;;;;;;1.45;1.20;;;;;;;;;;5020375;28;20455;-60
2023/08/30 13:15:02;;;;;;;2.90;1.15;;;;;;;;;;5020025;28;20060;-59
2023/08/30 13:17:30;;;;;;;5.32;1.58;;;;;;;;;;5018567;28;20500;-60
2023/08/30 13:19:59;;;;;;;2.45;1.40;;;;;;;;;;5020369;28;20053;-61
2023/08/30 13:22:27;;;;;;;1.88;1.17;;;;;;;;;;5020943;28;20266;-61
2023/08/30 13:24:56;;;;;;;2.08;1.50;;;;;;;;;;5020388;28;20118;-59
2023/08/30 13:27:24;;;;;;;2.75;1.80;;;;;;;;;;5021432;28;20477;-61
2023/08/30 13:29:54;;;;;;;2.10;1.90;;;;;;;;;;5015548;28;20146;-61
2023/08/30 13:32:22;;;;;;;3.83;1.90;;;;;;;;;;5020330;28;20053;-60
2023/08/30 13:34:51;;;;;;;2.72;1.80;;;;;;;;;;5022059;28;20099;-64
2023/08/30 13:37:19;;;;;;;3.50;2.10;;;;;;;;;;5021486;28;20395;-60
2023/08/30 13:39:48;;;;;;;3.72;2.00;;;;;;;;;;5018073;28;20054;-60
2023/08/30 13:42:16;;;;;;;7.03;1.80;;;;;;;;;;5018716;28;20048;-61
2023/08/30 13:44:45;;;;;;;2.10;1.70;;;;;;;;;;5016272;28;20107;-59
2023/08/30 13:47:16;;;;;;;2.10;1.90;;;;;;;;;;5020033;28;20433;-62
2023/08/30 13:49:44;;;;;;;2.88;2.22;;;;;;;;;;5017922;28;20440;-58
2023/08/30 13:52:13;;;;;;;2.42;2.08;;;;;;;;;;5012708;28;20052;-60
2023/08/30 13:54:41;;;;;;;2.00;1.70;;;;;;;;;;5017636;28;20060;-61
2023/08/30 13:57:09;;;;;;;2.47;2.08;;;;;;;;;;5017646;28;20429;-61
2023/08/30 13:59:38;;;;;;;3.35;2.17;;;;;;;;;;5015133;28;20046;-59
2023/08/30 14:02:06;;;;;;;2.55;1.80;;;;;;;;;;5020027;28;20119;-60
2023/08/30 14:04:37;;;;;;;3.63;2.30;;;;;;;;;;5018888;28;20045;-61
2023/08/30 14:07:05;;;;;;;2.60;2.10;;;;;;;;;;5018910;28;20056;-60
2023/08/30 14:09:34;;;;;;;2.42;2.00;;;;;;;;;;5018494;28;20057;-59
2023/08/30 14:12:03;;;;;;;3.25;2.13;;;;;;;;;;5022306;28;20446;-58
2023/08/30 14:14:32;;;;;;;2.83;2.13;;;;;;;;;;5018851;28;20057;-59
2023/08/30 14:17:01;;;;;;;5.47;2.40;;;;;;;;;;5015706;28;20076;-60
2023/08/30 14:19:29;;;;;;;3.90;2.10;;;;;;;;;;5017574;28;20524;-60
2023/08/30 14:21:59;;;;;;;2.92;2.33;;;;;;;;;;5016726;28;20123;-59
2023/08/30 14:24:29;;;;;;;5.00;2.05;;;;;;;;;;5019200;28;20064;-61
2023/08/30 14:27:02;;;;;;;2.58;1.85;;;;;;;;;;5019159;28;20049;-60
2023/08/30 14:29:30;;;;;;;2.47;1.80;;;;;;;;;;5017977;28;20058;-61
2023/08/30 14:31:59;;;;;;;2.75;2.10;;;;;;;;;;5019814;28;20049;-60
2023/08/30 14:34:28;;;;;;;3.97;2.28;;;;;;;;;;5021897;28;20091;-60
2023/08/30 14:36:58;;;;;;;4.13;2.08;;;;;;;;;;5016542;28;20050;-63
2023/08/30 14:39:27;;;;;;;3.45;2.13;;;;;;;;;;5018035;28;20195;-59
2023/08/30 14:41:55;;;;;;;5.25;2.55;;;;;;;;;;5017327;28;20762;-58
2023/08/30 14:44:25;;;;;;;3.50;2.40;;;;;;;;;;5016749;28;20080;-59
2023/08/30 14:46:54;;;;;;;2.97;2.30;;;;;;;;;;5019069;28;20046;-58
2023/08/30 14:49:23;;;;;;;3.30;2.30;;;;;;;;;;5019996;28;20045;-64
2023/08/30 14:51:51;;;;;;;5.30;2.63;;;;;;;;;;5024748;28;20390;-59